Time;durP1;ratioP1;P1;durP2;ratioP2;P2;SDS_P1;SDS_P2;PMS_P1;PMS_P2;Temp;Humidity;BMP_temperature;BMP_pressure;BME280_temperature;BME280_humidity;BME280_pressure;Samples;Min_cycle;Max_cycle;Signal;HPM_P1;HPM_P2
2022/12/11 00:01:13;;;;;;;3.13;2.53;;;2.30;99.90;;;;;;5013436;28;20243;-87
2022/12/11 00:03:39;;;;;;;4.27;3.67;;;2.30;99.90;;;;;;5015188;28;20240;-91
2022/12/11 00:06:07;;;;;;;5.10;4.73;;;2.30;99.90;;;;;;5014228;28;20277;-91
2022/12/11 00:08:33;;;;;;;3.40;3.20;;;2.40;99.90;;;;;;4996265;28;20226;-89
2022/12/11 00:10:58;;;;;;;11.13;2.57;;;2.40;99.90;;;;;;4998832;28;20219;-92
2022/12/11 00:13:24;;;;;;;5.13;4.70;;;2.30;99.90;;;;;;5012395;28;20196;-88
2022/12/11 00:15:50;;;;;;;4.57;2.87;;;2.40;99.90;;;;;;5011501;28;20688;-88
2022/12/11 00:18:15;;;;;;;2.67;2.57;;;2.50;99.90;;;;;;4980494;28;20230;-90
2022/12/11 00:20:41;;;;;;;3.17;2.97;;;2.40;99.90;;;;;;4996721;28;20318;-92
2022/12/11 00:23:07;;;;;;;8.23;5.70;;;2.50;99.90;;;;;;5016219;28;20262;-89
2022/12/11 00:25:33;;;;;;;4.80;4.40;;;2.50;99.90;;;;;;5004398;28;20562;-88
2022/12/11 00:27:59;;;;;;;2.07;1.97;;;2.50;99.90;;;;;;5016022;28;20314;-88
2022/12/11 00:30:24;;;;;;;2.50;2.33;;;2.50;99.90;;;;;;5017095;28;20309;-91
2022/12/11 00:32:51;;;;;;;7.20;4.80;;;2.50;99.90;;;;;;5031718;28;20223;-87
2022/12/11 00:35:16;;;;;;;3.50;3.00;;;2.60;99.90;;;;;;5000491;28;20226;-88
2022/12/11 00:37:42;;;;;;;6.53;2.63;;;2.60;99.90;;;;;;5031092;28;20200;-86
2022/12/11 00:40:08;;;;;;;3.53;3.23;;;2.60;99.90;;;;;;4997538;28;20351;-88
2022/12/11 00:42:34;;;;;;;4.77;4.47;;;2.70;99.90;;;;;;5016518;28;20317;-87
2022/12/11 00:45:00;;;;;;;6.13;3.17;;;2.70;99.90;;;;;;4998358;28;20235;-88
2022/12/11 00:47:26;;;;;;;4.20;3.90;;;2.70;99.90;;;;;;5016052;28;20773;-89
2022/12/11 00:49:51;;;;;;;4.73;4.40;;;2.60;99.90;;;;;;5032012;28;20212;-88
2022/12/11 00:52:17;;;;;;;2.50;2.40;;;2.70;99.90;;;;;;5034587;28;20246;-89
2022/12/11 00:54:43;;;;;;;2.80;2.57;;;2.70;99.90;;;;;;4999158;28;20294;-89
2022/12/11 00:57:08;;;;;;;4.67;4.27;;;2.70;99.90;;;;;;5031920;28;20215;-88
2022/12/11 00:59:34;;;;;;;6.77;6.27;;;2.70;99.90;;;;;;4998526;28;20648;-90
2022/12/11 01:02:01;;;;;;;10.47;5.20;;;2.70;99.90;;;;;;5015270;28;20254;-88
2022/12/11 01:04:27;;;;;;;7.50;4.17;;;2.80;99.90;;;;;;5000893;28;20227;-89
2022/12/11 01:06:55;;;;;;;9.23;4.40;;;2.80;99.90;;;;;;5015127;28;20226;-88
2022/12/11 01:12:05;;;;;;;10.00;5.27;;;2.70;99.90;;;;;;4999514;28;20804;-88
2022/12/11 01:14:31;;;;;;;2.73;2.53;;;2.70;99.90;;;;;;5015373;28;20250;-88
2022/12/11 01:16:57;;;;;;;6.03;4.03;;;2.80;99.90;;;;;;5015173;28;20315;-89
2022/12/11 01:19:22;;;;;;;19.33;4.50;;;2.80;99.90;;;;;;4999295;28;20720;-89
2022/12/11 01:21:48;;;;;;;14.23;8.17;;;2.80;99.90;;;;;;4996794;28;20215;-87
2022/12/11 01:24:14;;;;;;;10.03;4.43;;;2.80;99.90;;;;;;5031048;28;21107;-87
2022/12/11 01:26:39;;;;;;;4.57;3.40;;;2.80;99.90;;;;;;5014387;28;20231;-88
2022/12/11 01:29:05;;;;;;;5.17;3.37;;;2.80;99.90;;;;;;5030250;28;20245;-88
2022/12/11 01:31:31;;;;;;;7.67;2.43;;;2.80;99.90;;;;;;5016121;28;20191;-88
2022/12/11 01:33:56;;;;;;;17.17;4.83;;;2.80;99.90;;;;;;4998800;28;20273;-88
2022/12/11 01:36:23;;;;;;;4.47;4.00;;;2.90;99.90;;;;;;5012903;28;20228;-88
2022/12/11 01:38:49;;;;;;;12.40;3.97;;;2.80;99.90;;;;;;5013388;28;20746;-89
2022/12/11 01:41:16;;;;;;;4.27;3.90;;;2.80;99.90;;;;;;4998282;28;20243;-88
2022/12/11 01:44:02;;;;;;;22.40;5.43;;;2.80;99.90;;;;;;4997259;28;20215;-89
2022/12/11 01:46:29;;;;;;;19.37;5.83;;;2.80;99.90;;;;;;4996109;28;20217;-88
2022/12/11 01:48:56;;;;;;;5.40;4.77;;;2.80;99.90;;;;;;5014454;28;20219;-87
2022/12/11 01:51:23;;;;;;;4.13;3.87;;;2.80;99.90;;;;;;5028667;28;20677;-87
2022/12/11 01:53:55;;;;;;;3.97;2.93;;;2.80;99.90;;;;;;4997969;28;20223;-88
2022/12/11 01:56:22;;;;;;;5.07;3.13;;;2.80;99.90;;;;;;5006720;28;20222;-87
2022/12/11 01:58:51;;;;;;;9.67;4.60;;;2.80;99.90;;;;;;4997185;28;20309;-88
2022/12/11 02:01:26;;;;;;;6.63;4.40;;;2.80;99.90;;;;;;4999365;28;20204;-88
2022/12/11 02:03:54;;;;;;;4.13;3.83;;;2.80;99.90;;;;;;5005387;28;20246;-88
2022/12/11 02:06:29;;;;;;;2.97;2.77;;;2.80;99.90;;;;;;4997966;28;20250;-88
2022/12/11 02:08:55;;;;;;;15.33;4.20;;;2.80;99.90;;;;;;4998632;28;20313;-88
2022/12/11 02:11:27;;;;;;;5.93;5.43;;;2.80;99.90;;;;;;5013184;28;21200;-88
2022/12/11 02:14:05;;;;;;;7.93;4.70;;;2.80;99.90;;;;;;4997782;28;20183;-88
2022/12/11 02:16:47;;;;;;;10.23;4.40;;;2.90;99.90;;;;;;4999821;28;20203;-88
2022/12/11 02:19:52;;;;;;;12.07;4.67;;;2.80;99.90;;;;;;4998041;28;20269;-88
2022/12/11 02:22:49;;;;;;;5.73;4.27;;;2.80;99.90;;;;;;4992829;28;20681;-88
2022/12/11 02:25:21;;;;;;;11.37;4.37;;;2.90;99.90;;;;;;4998656;28;20212;-88
2022/12/11 02:27:55;;;;;;;5.73;4.00;;;2.90;99.90;;;;;;4997559;28;20741;-89
2022/12/11 02:30:22;;;;;;;5.47;3.63;;;2.90;99.90;;;;;;5020685;28;20246;-88
2022/12/11 02:32:56;;;;;;;9.10;3.87;;;2.90;99.90;;;;;;4997617;28;20228;-87
2022/12/11 02:35:33;;;;;;;9.53;7.17;;;2.80;99.90;;;;;;4998257;28;20266;-86
2022/12/11 02:38:04;;;;;;;9.10;3.20;;;2.90;99.90;;;;;;4999125;28;20214;-88
2022/12/11 02:40:34;;;;;;;4.27;3.97;;;2.90;99.90;;;;;;4998855;28;20223;-88
2022/12/11 02:43:03;;;;;;;5.80;3.80;;;3.00;99.90;;;;;;4999173;28;20224;-88
2022/12/11 02:45:31;;;;;;;5.13;4.17;;;3.00;99.90;;;;;;4996110;28;20225;-88
2022/12/11 02:47:59;;;;;;;11.03;5.97;;;3.00;99.90;;;;;;4998383;28;20588;-88
2022/12/11 02:50:26;;;;;;;2.63;2.20;;;3.10;99.90;;;;;;4998002;28;20228;-87
2022/12/11 02:52:55;;;;;;;19.77;4.17;;;3.00;99.90;;;;;;4998550;28;20268;-89
2022/12/11 02:55:22;;;;;;;9.50;2.70;;;3.00;99.90;;;;;;5014492;28;20195;-89
2022/12/11 02:58:15;;;;;;;2.97;2.70;;;3.00;99.90;;;;;;4997726;28;20223;-87
2022/12/11 03:00:40;;;;;;;10.87;5.50;;;3.00;99.90;;;;;;4996505;28;20235;-89
2022/12/11 03:03:06;;;;;;;1.70;1.47;;;3.00;99.90;;;;;;5028425;28;20262;-87
2022/12/11 03:05:32;;;;;;;11.23;7.53;;;3.00;99.90;;;;;;5014760;28;20231;-87
2022/12/11 03:07:58;;;;;;;12.13;4.40;;;3.00;99.90;;;;;;5014271;28;20225;-88
2022/12/11 03:10:24;;;;;;;3.63;3.33;;;3.00;99.90;;;;;;4999132;28;20202;-88
2022/12/11 03:12:54;;;;;;;10.03;6.33;;;3.10;99.90;;;;;;5027887;28;20231;-91
2022/12/11 03:15:29;;;;;;;6.27;4.47;;;3.10;99.90;;;;;;4998894;28;20341;-89
2022/12/11 03:18:09;;;;;;;5.77;5.33;;;3.10;99.90;;;;;;4997784;28;20254;-87
2022/12/11 03:21:05;;;;;;;13.60;5.10;;;3.10;99.90;;;;;;5028123;28;20349;-88
2022/12/11 03:24:00;;;;;;;5.73;2.43;;;3.00;99.90;;;;;;4998983;28;20243;-88
2022/12/11 03:26:28;;;;;;;7.83;6.67;;;3.00;99.90;;;;;;5013170;28;20245;-89
2022/12/11 03:28:59;;;;;;;8.20;5.63;;;3.10;99.90;;;;;;4995880;28;20192;-88
2022/12/11 03:31:33;;;;;;;4.70;4.20;;;3.10;99.90;;;;;;4996966;28;20191;-88
2022/12/11 03:34:02;;;;;;;7.50;5.20;;;3.20;99.90;;;;;;4997437;28;20298;-89
2022/12/11 03:36:36;;;;;;;5.23;4.93;;;3.20;99.90;;;;;;5021131;28;20219;-89
2022/12/11 03:39:11;;;;;;;6.33;4.00;;;3.20;99.90;;;;;;5020858;28;20223;-90
2022/12/11 03:41:40;;;;;;;8.33;4.03;;;3.10;99.90;;;;;;4996406;28;20211;-88
2022/12/11 03:44:07;;;;;;;4.73;4.30;;;3.10;99.90;;;;;;4998131;28;20680;-86
2022/12/11 03:46:37;;;;;;;5.03;4.57;;;3.10;99.90;;;;;;5013124;28;20279;-88
2022/12/11 03:49:15;;;;;;;7.03;5.77;;;3.10;99.90;;;;;;5031000;28;20742;-88
2022/12/11 03:51:41;;;;;;;8.43;5.67;;;3.10;99.90;;;;;;4994848;28;20222;-88
2022/12/11 03:54:07;;;;;;;3.93;2.43;;;3.10;99.90;;;;;;4997969;28;20263;-88
2022/12/11 03:56:35;;;;;;;7.37;6.67;;;3.10;99.90;;;;;;5015741;28;20239;-88
2022/12/11 03:59:01;;;;;;;7.40;6.37;;;3.00;99.90;;;;;;5000451;28;20250;-88
2022/12/11 04:01:27;;;;;;;4.33;3.97;;;3.00;99.90;;;;;;5016786;28;20215;-88
2022/12/11 04:03:53;;;;;;;14.43;6.57;;;3.00;99.90;;;;;;5002587;28;20239;-87
2022/12/11 04:06:19;;;;;;;3.57;3.23;;;3.00;99.90;;;;;;5002509;28;20259;-88
2022/12/11 04:08:44;;;;;;;5.47;4.97;;;3.00;99.90;;;;;;5024250;28;21201;-89
2022/12/11 04:16:47;;;;;;;7.43;5.20;;;3.00;99.90;;;;;;5019083;28;20210;-87
2022/12/11 04:24:42;;;;;;;4.63;4.23;;;3.00;99.90;;;;;;5027881;28;20247;-88
2022/12/11 04:27:07;;;;;;;4.87;3.33;;;3.00;99.90;;;;;;4998269;28;20301;-88
2022/12/11 04:29:33;;;;;;;17.10;5.37;;;3.00;99.90;;;;;;4983057;28;20216;-86
2022/12/11 04:31:59;;;;;;;5.03;4.73;;;3.00;99.90;;;;;;5032286;28;20219;-88
2022/12/11 04:34:24;;;;;;;9.63;4.50;;;3.00;99.90;;;;;;4998422;28;20202;-86
2022/12/11 04:36:50;;;;;;;4.33;4.03;;;3.00;99.90;;;;;;5014210;28;20310;-88
2022/12/11 04:39:16;;;;;;;11.77;4.67;;;2.90;99.90;;;;;;5011916;28;20235;-87
2022/12/11 04:41:41;;;;;;;3.40;2.57;;;3.00;99.90;;;;;;5030514;28;20553;-87
2022/12/11 04:44:08;;;;;;;3.10;2.90;;;2.90;99.90;;;;;;5011760;28;20242;-89
2022/12/11 04:46:34;;;;;;;5.73;5.23;;;2.90;99.90;;;;;;5023668;28;20187;-88
2022/12/11 04:49:00;;;;;;;11.23;5.83;;;2.90;99.90;;;;;;5000618;28;20219;-89
2022/12/11 04:51:27;;;;;;;14.33;8.90;;;2.90;99.90;;;;;;5013979;28;20255;-87
2022/12/11 04:53:53;;;;;;;10.97;6.47;;;2.90;99.90;;;;;;5031235;28;20322;-89
2022/12/11 04:56:19;;;;;;;12.37;6.00;;;2.90;99.90;;;;;;4999196;28;21048;-90
2022/12/11 04:58:46;;;;;;;12.67;6.27;;;2.90;99.90;;;;;;5029912;28;20192;-87
2022/12/11 05:01:20;;;;;;;3.60;2.70;;;2.90;99.90;;;;;;5001032;28;20212;-88
2022/12/11 05:03:46;;;;;;;7.37;2.93;;;2.90;99.90;;;;;;4998625;28;20246;-87
2022/12/11 05:06:12;;;;;;;5.33;4.87;;;2.90;99.90;;;;;;5006111;28;20232;-88
2022/12/11 05:08:40;;;;;;;7.97;5.53;;;2.90;99.90;;;;;;5031169;28;20692;-87
2022/12/11 05:11:08;;;;;;;25.47;5.60;;;2.90;99.90;;;;;;5000606;28;20235;-87
2022/12/11 05:13:34;;;;;;;5.83;4.87;;;2.90;99.90;;;;;;5000276;28;20237;-87
2022/12/11 05:16:04;;;;;;;7.83;7.13;;;3.00;99.90;;;;;;5005739;28;20226;-87
2022/12/11 05:18:29;;;;;;;4.93;2.87;;;3.00;99.90;;;;;;4999725;28;21073;-87
2022/12/11 05:20:57;;;;;;;5.53;3.63;;;2.90;99.90;;;;;;4998670;28;20239;-89
2022/12/11 05:23:23;;;;;;;5.87;3.33;;;2.90;99.90;;;;;;4997667;28;20230;-87
2022/12/11 05:26:04;;;;;;;4.03;3.63;;;2.90;99.90;;;;;;4999897;28;20211;-86
2022/12/11 05:28:33;;;;;;;11.67;4.57;;;2.90;99.90;;;;;;5029894;28;20187;-88
2022/12/11 05:31:10;;;;;;;10.17;4.63;;;2.90;99.90;;;;;;5006641;28;20230;-88
2022/12/11 05:33:36;;;;;;;10.23;6.27;;;2.90;99.90;;;;;;4996771;28;20293;-85
2022/12/11 05:36:02;;;;;;;6.27;5.67;;;2.90;99.90;;;;;;4997671;28;20327;-87
2022/12/11 05:38:28;;;;;;;6.23;3.17;;;2.90;99.90;;;;;;5014553;28;20215;-86
2022/12/11 05:40:56;;;;;;;4.83;4.47;;;2.90;99.90;;;;;;5013209;28;20227;-87
2022/12/11 05:43:22;;;;;;;4.70;4.30;;;2.90;99.90;;;;;;4999338;28;20184;-86
2022/12/11 05:45:48;;;;;;;5.07;4.57;;;2.90;99.90;;;;;;4998808;28;20220;-87
2022/12/11 05:48:13;;;;;;;19.97;5.47;;;2.90;99.90;;;;;;4996989;28;20310;-87
2022/12/11 05:50:39;;;;;;;4.07;3.87;;;2.90;99.90;;;;;;5032916;28;20243;-87
2022/12/11 05:53:05;;;;;;;11.63;6.43;;;2.90;99.90;;;;;;4997336;28;20374;-87
2022/12/11 05:55:34;;;;;;;4.67;3.73;;;2.90;99.90;;;;;;4997769;28;20200;-88
2022/12/11 05:57:59;;;;;;;9.23;4.97;;;2.90;99.90;;;;;;5030532;28;20234;-87
2022/12/11 06:00:25;;;;;;;5.00;3.93;;;2.90;99.90;;;;;;4998069;28;20239;-89
2022/12/11 06:02:51;;;;;;;6.40;4.20;;;2.90;99.90;;;;;;4999724;28;21165;-88
2022/12/11 06:05:16;;;;;;;6.00;5.67;;;2.90;99.90;;;;;;5013726;28;20230;-86
2022/12/11 06:07:42;;;;;;;13.93;5.60;;;2.90;99.90;;;;;;4998794;28;20848;-87
2022/12/11 06:10:08;;;;;;;4.60;3.70;;;3.00;99.90;;;;;;5031143;28;20291;-87
2022/12/11 06:12:35;;;;;;;16.40;7.17;;;2.90;99.90;;;;;;4981028;28;20329;-88
2022/12/11 06:15:00;;;;;;;8.00;7.47;;;2.90;99.90;;;;;;5013617;28;21183;-87
2022/12/11 06:17:26;;;;;;;6.37;5.77;;;2.90;99.90;;;;;;4998421;28;20219;-87
2022/12/11 06:19:52;;;;;;;6.50;4.50;;;3.00;99.90;;;;;;4997194;28;20216;-87
2022/12/11 06:22:17;;;;;;;13.17;4.03;;;3.00;99.90;;;;;;5013397;28;20253;-87
2022/12/11 06:24:43;;;;;;;13.37;4.10;;;3.00;99.90;;;;;;4999772;28;20251;-86
2022/12/11 06:27:09;;;;;;;6.37;5.87;;;3.10;99.90;;;;;;5032145;28;20234;-88
2022/12/11 06:29:34;;;;;;;6.77;5.97;;;3.10;99.90;;;;;;4997465;28;20466;-87
2022/12/11 06:32:00;;;;;;;4.70;3.83;;;3.00;99.90;;;;;;4996351;28;20216;-88
2022/12/11 06:34:26;;;;;;;13.23;4.87;;;3.00;99.90;;;;;;5015446;28;20593;-87
2022/12/11 06:36:52;;;;;;;16.53;5.20;;;3.00;99.90;;;;;;4997018;28;20222;-88
2022/12/11 06:39:17;;;;;;;2.93;2.67;;;3.00;99.90;;;;;;5011986;28;20245;-86
2022/12/11 06:41:43;;;;;;;3.33;3.07;;;3.00;99.90;;;;;;5012912;28;20290;-88
2022/12/11 06:44:08;;;;;;;10.27;4.73;;;2.90;99.90;;;;;;4999567;28;20215;-88
2022/12/11 06:46:34;;;;;;;6.17;5.00;;;2.90;99.90;;;;;;4998752;28;20200;-87
2022/12/11 06:49:00;;;;;;;8.83;4.10;;;2.90;99.90;;;;;;4997211;28;20250;-86
2022/12/11 06:51:26;;;;;;;9.43;4.77;;;2.90;99.90;;;;;;4996883;28;20241;-87
2022/12/11 06:53:53;;;;;;;7.83;4.63;;;2.90;99.90;;;;;;4999275;28;20222;-86
2022/12/11 06:56:19;;;;;;;3.13;2.87;;;2.90;99.90;;;;;;4997324;28;20703;-88
2022/12/11 06:58:45;;;;;;;22.93;3.83;;;2.90;99.90;;;;;;4996952;28;20203;-88
2022/12/11 07:01:18;;;;;;;10.27;3.27;;;2.90;99.90;;;;;;4998046;28;20314;-87
2022/12/11 07:03:45;;;;;;;6.30;4.17;;;2.90;99.90;;;;;;4997431;28;20709;-87
2022/12/11 07:06:11;;;;;;;8.20;5.97;;;2.80;99.90;;;;;;4998495;28;20293;-89
2022/12/11 07:08:36;;;;;;;2.40;2.30;;;2.90;99.90;;;;;;4998076;28;20257;-86
2022/12/11 07:11:08;;;;;;;8.70;5.03;;;2.90;99.90;;;;;;4996830;28;20243;-87
2022/12/11 07:13:34;;;;;;;5.67;3.50;;;2.90;99.90;;;;;;4998503;28;20183;-86
2022/12/11 07:16:00;;;;;;;7.23;4.87;;;2.90;99.90;;;;;;5005060;28;20227;-87
2022/12/11 07:18:26;;;;;;;6.77;5.33;;;2.90;99.90;;;;;;4995546;28;20583;-87
2022/12/11 07:20:52;;;;;;;4.13;3.73;;;2.90;99.90;;;;;;4995420;28;20243;-87
2022/12/11 07:23:18;;;;;;;11.67;4.00;;;2.90;99.90;;;;;;5012150;28;20712;-87
2022/12/11 07:25:45;;;;;;;20.17;4.93;;;3.00;99.90;;;;;;5003670;28;20203;-87
2022/12/11 07:28:11;;;;;;;6.37;4.87;;;3.00;99.90;;;;;;4998706;28;20222;-87
2022/12/11 07:30:37;;;;;;;4.63;4.23;;;3.00;99.90;;;;;;5011840;28;20228;-86
2022/12/11 07:33:03;;;;;;;8.77;5.80;;;3.00;99.90;;;;;;5000803;28;20219;-88
2022/12/11 07:35:29;;;;;;;5.43;5.00;;;3.00;99.90;;;;;;5014363;28;20229;-86
2022/12/11 07:37:55;;;;;;;19.37;6.20;;;2.90;99.90;;;;;;5029647;28;20199;-88
2022/12/11 07:40:20;;;;;;;11.03;4.13;;;2.90;99.90;;;;;;5030903;28;20223;-86
2022/12/11 07:42:46;;;;;;;2.10;2.00;;;2.90;99.90;;;;;;5000054;28;20218;-86
2022/12/11 07:45:12;;;;;;;10.97;4.73;;;2.90;99.90;;;;;;5031154;28;21102;-87
2022/12/11 07:47:37;;;;;;;7.67;6.50;;;2.90;99.90;;;;;;4996916;28;20328;-86
2022/12/11 07:50:04;;;;;;;2.63;2.47;;;3.00;99.90;;;;;;5015492;28;20739;-89
2022/12/11 07:52:31;;;;;;;7.60;4.00;;;3.00;99.90;;;;;;5028058;28;20195;-87
2022/12/11 07:54:57;;;;;;;5.43;5.13;;;3.00;99.90;;;;;;4995511;28;20742;-86
2022/12/11 07:57:22;;;;;;;7.83;5.03;;;2.90;99.90;;;;;;4997143;28;20231;-87
2022/12/11 07:59:49;;;;;;;4.43;4.07;;;3.00;99.90;;;;;;5012375;28;20263;-87
2022/12/11 08:02:14;;;;;;;11.50;4.10;;;3.00;99.90;;;;;;4994435;28;20323;-87
2022/12/11 08:04:40;;;;;;;4.77;4.37;;;3.00;99.90;;;;;;5011188;28;20630;-87
2022/12/11 08:07:06;;;;;;;5.37;5.03;;;3.00;99.90;;;;;;5014489;28;20286;-87
2022/12/11 08:09:32;;;;;;;4.47;4.27;;;3.00;99.90;;;;;;5028401;28;20235;-87
2022/12/11 08:11:58;;;;;;;7.23;6.53;;;3.10;99.90;;;;;;4995013;28;20313;-87
2022/12/11 08:14:23;;;;;;;4.73;4.43;;;3.00;99.90;;;;;;4995783;28;20699;-89
2022/12/11 08:16:49;;;;;;;5.53;3.53;;;3.00;99.90;;;;;;5013641;28;20246;-87
2022/12/11 08:19:15;;;;;;;11.43;5.40;;;3.00;99.90;;;;;;5014028;28;20290;-89
2022/12/11 08:21:41;;;;;;;14.90;4.97;;;3.00;99.90;;;;;;5000115;28;20681;-88
2022/12/11 08:24:07;;;;;;;4.27;3.90;;;3.00;99.90;;;;;;4994792;28;20224;-87
2022/12/11 08:26:33;;;;;;;5.13;4.83;;;3.00;99.90;;;;;;4997389;28;20208;-87
2022/12/11 08:29:00;;;;;;;9.63;4.87;;;3.00;99.90;;;;;;5000091;28;20224;-88
2022/12/11 08:31:27;;;;;;;9.47;5.03;;;3.00;99.90;;;;;;4997983;28;20192;-86
2022/12/11 08:33:54;;;;;;;6.27;5.50;;;3.00;99.90;;;;;;4998674;28;20575;-86
2022/12/11 08:36:21;;;;;;;5.00;4.60;;;3.10;99.90;;;;;;4998388;28;20317;-88
2022/12/11 08:38:48;;;;;;;8.97;4.23;;;3.10;99.90;;;;;;4998613;28;20223;-86
2022/12/11 08:41:16;;;;;;;5.43;3.60;;;3.10;99.90;;;;;;4998723;28;20231;-84
2022/12/11 08:43:42;;;;;;;9.67;5.50;;;3.20;99.90;;;;;;4994851;28;20191;-86
2022/12/11 08:46:08;;;;;;;11.70;6.40;;;3.20;99.90;;;;;;5014692;28;20630;-87
2022/12/11 08:48:36;;;;;;;7.53;4.70;;;3.20;99.90;;;;;;5030590;28;20770;-86
2022/12/11 08:51:04;;;;;;;6.13;5.57;;;3.20;99.90;;;;;;4999209;28;20680;-86
2022/12/11 08:53:31;;;;;;;7.77;4.27;;;3.20;99.90;;;;;;4997052;28;20215;-89
2022/12/11 08:56:04;;;;;;;6.90;4.63;;;3.20;99.90;;;;;;4996691;28;20319;-85
2022/12/11 08:58:29;;;;;;;16.17;5.63;;;3.20;99.90;;;;;;4998050;28;20266;-87
2022/12/11 09:00:55;;;;;;;10.00;4.70;;;3.20;99.90;;;;;;5013112;28;20709;-85
2022/12/11 09:03:21;;;;;;;2.93;2.17;;;3.20;99.90;;;;;;4994386;28;20637;-86
2022/12/11 09:05:47;;;;;;;5.30;4.60;;;3.20;99.90;;;;;;4999431;28;20238;-87
2022/12/11 09:08:13;;;;;;;13.20;4.53;;;3.20;99.90;;;;;;5011822;28;20252;-87
2022/12/11 09:10:39;;;;;;;3.67;3.43;;;3.30;99.90;;;;;;4994968;28;20200;-87
2022/12/11 09:13:04;;;;;;;7.23;6.50;;;3.30;99.90;;;;;;5013430;28;21242;-85
2022/12/11 09:15:30;;;;;;;6.93;5.03;;;3.30;99.90;;;;;;5025956;28;20335;-85
2022/12/11 09:17:56;;;;;;;4.63;4.23;;;3.40;99.90;;;;;;5013025;28;20224;-84
2022/12/11 09:20:22;;;;;;;5.23;4.93;;;3.40;99.90;;;;;;5017239;28;20586;-85
2022/12/11 09:22:47;;;;;;;18.83;4.53;;;3.40;99.90;;;;;;5001533;28;20196;-87
2022/12/11 09:25:13;;;;;;;16.57;4.93;;;3.50;99.90;;;;;;5000630;28;20640;-84
2022/12/11 09:27:39;;;;;;;15.37;5.30;;;3.40;99.90;;;;;;5032489;28;20231;-83
2022/12/11 09:30:05;;;;;;;7.10;5.13;;;3.40;99.90;;;;;;5000966;28;20238;-86
2022/12/11 09:32:31;;;;;;;7.17;5.53;;;3.40;99.90;;;;;;4997058;28;20519;-86
2022/12/11 09:34:56;;;;;;;6.80;4.23;;;3.40;99.90;;;;;;4999034;28;20707;-85
2022/12/11 09:37:22;;;;;;;8.70;4.03;;;3.40;99.90;;;;;;5033432;28;20195;-83
2022/12/11 09:39:48;;;;;;;4.57;3.47;;;3.40;99.90;;;;;;5014318;28;20282;-87
2022/12/11 09:42:34;;;;;;;5.03;3.67;;;3.50;99.90;;;;;;4999683;28;20223;-87
2022/12/11 09:45:02;;;;;;;16.43;6.80;;;3.50;99.90;;;;;;5017952;28;20226;-90
2022/12/11 09:47:34;;;;;;;2.90;2.70;;;3.50;99.90;;;;;;5014350;28;20690;-88
2022/12/11 09:50:26;;;;;;;8.10;6.63;;;3.50;99.90;;;;;;4998755;28;20242;-89
2022/12/11 09:53:12;;;;;;;4.33;4.03;;;3.60;99.90;;;;;;4998053;28;20326;-85
2022/12/11 09:55:41;;;;;;;7.93;5.53;;;3.60;99.90;;;;;;5030977;28;21230;-83
2022/12/11 09:58:23;;;;;;;11.00;4.93;;;3.60;99.90;;;;;;4999309;28;20202;-86
2022/12/11 10:01:02;;;;;;;9.17;5.27;;;3.50;99.90;;;;;;4998609;28;20232;-85
2022/12/11 10:03:31;;;;;;;16.97;4.10;;;3.60;99.90;;;;;;4998981;28;20243;-85
2022/12/11 10:06:16;;;;;;;8.73;7.83;;;3.60;99.90;;;;;;4999484;28;20239;-85
2022/12/11 10:09:15;;;;;;;4.07;3.77;;;3.50;99.90;;;;;;5000947;28;20297;-87
2022/12/11 10:11:53;;;;;;;6.10;5.77;;;3.50;99.90;;;;;;5031849;28;21070;-86
2022/12/11 10:14:44;;;;;;;8.63;5.33;;;3.70;99.90;;;;;;5033171;28;20298;-85
2022/12/11 10:17:29;;;;;;;4.37;4.17;;;3.80;99.90;;;;;;5030932;28;20670;-83
2022/12/11 10:20:16;;;;;;;6.83;3.87;;;3.80;99.90;;;;;;5000648;28;20242;-85
2022/12/11 10:22:43;;;;;;;3.37;3.23;;;3.80;99.90;;;;;;5030394;28;20722;-86
2022/12/11 10:25:39;;;;;;;5.20;4.73;;;3.80;99.90;;;;;;5032104;28;20184;-87
2022/12/11 10:28:18;;;;;;;6.17;3.73;;;3.90;99.90;;;;;;4998825;28;20212;-87
2022/12/11 10:30:54;;;;;;;3.80;3.50;;;3.90;99.90;;;;;;4998033;28;20233;-84
2022/12/11 10:33:55;;;;;;;4.87;4.43;;;3.90;99.90;;;;;;4999620;28;20227;-84
2022/12/11 10:36:34;;;;;;;8.13;4.63;;;4.00;99.90;;;;;;5002175;28;20996;-86
2022/12/11 10:39:00;;;;;;;7.47;5.73;;;4.00;99.90;;;;;;5000993;28;20218;-84
2022/12/11 10:41:41;;;;;;;4.90;3.73;;;4.00;99.90;;;;;;5029904;28;20756;-88
2022/12/11 10:44:20;;;;;;;3.33;3.10;;;4.00;99.90;;;;;;4998845;28;20227;-90
2022/12/11 10:47:01;;;;;;;5.30;2.27;;;4.00;99.90;;;;;;5032795;28;20584;-87
2022/12/11 10:49:29;;;;;;;7.67;3.80;;;4.00;99.90;;;;;;4999366;28;20223;-86
2022/12/11 10:51:56;;;;;;;6.23;5.57;;;4.00;99.90;;;;;;4997389;28;20740;-85
2022/12/11 10:54:33;;;;;;;3.00;2.67;;;4.10;99.90;;;;;;4998861;28;20211;-86
2022/12/11 10:57:01;;;;;;;7.97;5.17;;;4.20;99.90;;;;;;4998929;28;20223;-86
2022/12/11 10:59:48;;;;;;;8.60;5.50;;;4.10;99.90;;;;;;4997855;28;20219;-84
2022/12/11 11:02:30;;;;;;;3.97;2.20;;;4.10;99.90;;;;;;5000235;28;20329;-84
2022/12/11 11:04:59;;;;;;;5.60;4.90;;;4.00;99.90;;;;;;5005149;28;20183;-85
2022/12/11 11:07:27;;;;;;;4.53;4.33;;;4.00;99.90;;;;;;5013575;28;20697;-87
2022/12/11 11:10:22;;;;;;;2.00;1.50;;;4.10;99.90;;;;;;4996839;28;20219;-85
2022/12/11 11:12:49;;;;;;;6.67;3.67;;;4.30;99.90;;;;;;4991841;28;20614;-93
2022/12/11 11:15:25;;;;;;;5.53;5.10;;;4.30;99.90;;;;;;5003178;28;20215;-87
2022/12/11 11:17:53;;;;;;;10.43;3.87;;;4.40;99.90;;;;;;4997087;28;20222;-84
2022/12/11 11:20:32;;;;;;;3.83;3.53;;;4.40;99.90;;;;;;4998248;28;20223;-88
2022/12/11 11:23:10;;;;;;;4.07;3.73;;;4.40;99.90;;;;;;4998254;28;20216;-85
2022/12/11 11:25:35;;;;;;;5.83;3.30;;;4.40;99.90;;;;;;4996948;28;20187;-86
2022/12/11 11:28:04;;;;;;;3.07;2.80;;;4.50;99.90;;;;;;5013568;28;20275;-86
2022/12/11 11:30:38;;;;;;;7.00;5.60;;;4.30;99.90;;;;;;4997084;28;20226;-84
2022/12/11 11:33:18;;;;;;;7.10;2.67;;;4.30;99.90;;;;;;4996981;28;20243;-87
2022/12/11 11:36:19;;;;;;;11.53;5.67;;;4.40;99.90;;;;;;5012681;28;20223;-87
2022/12/11 11:39:09;;;;;;;8.63;5.50;;;4.50;99.90;;;;;;4986319;28;20230;-85
2022/12/11 11:41:50;;;;;;;3.67;3.47;;;4.40;99.90;;;;;;4994563;28;20228;-89
2022/12/11 11:44:26;;;;;;;5.90;5.33;;;4.30;99.90;;;;;;4998898;28;20697;-87
2022/12/11 11:47:23;;;;;;;15.73;3.90;;;4.20;99.90;;;;;;4998798;28;20261;-85
2022/12/11 11:50:05;;;;;;;6.20;4.70;;;4.20;99.90;;;;;;4994940;28;20242;-85
2022/12/11 11:52:45;;;;;;;6.87;4.60;;;4.30;99.90;;;;;;5002858;28;20291;-85
2022/12/11 11:55:25;;;;;;;8.70;6.27;;;4.30;99.90;;;;;;5028791;28;20966;-82
2022/12/11 11:57:59;;;;;;;8.87;5.47;;;4.30;99.90;;;;;;4995382;28;20709;-84
2022/12/11 12:00:27;;;;;;;10.53;8.80;;;4.30;99.90;;;;;;4995404;28;20337;-86
2022/12/11 12:03:18;;;;;;;10.40;7.93;;;4.40;99.90;;;;;;4993867;28;20254;-88
2022/12/11 12:05:55;;;;;;;10.43;4.97;;;4.50;99.90;;;;;;4994139;28;20899;-85
2022/12/11 12:08:47;;;;;;;8.47;5.80;;;4.50;99.90;;;;;;4996698;28;20249;-87
2022/12/11 12:11:32;;;;;;;6.50;5.93;;;4.50;99.90;;;;;;4996460;28;20245;-87
2022/12/11 12:14:09;;;;;;;7.20;6.37;;;4.40;99.90;;;;;;4996051;28;20234;-88
2022/12/11 12:16:53;;;;;;;4.10;3.30;;;4.40;99.90;;;;;;4996929;28;20187;-85
2022/12/11 12:19:53;;;;;;;10.73;6.77;;;4.30;99.90;;;;;;5018025;28;20227;-85
2022/12/11 12:22:46;;;;;;;11.40;6.20;;;4.30;99.90;;;;;;4996424;28;20310;-84
2022/12/11 12:25:39;;;;;;;14.17;6.43;;;4.30;99.90;;;;;;4995797;28;20771;-87
2022/12/11 12:28:38;;;;;;;18.10;4.83;;;4.30;99.90;;;;;;5016069;28;20224;-85
2022/12/11 12:31:22;;;;;;;3.83;3.30;;;4.30;99.90;;;;;;5023022;28;20274;-84
2022/12/11 12:34:13;;;;;;;14.40;5.40;;;4.30;99.90;;;;;;5014307;28;20333;-83
2022/12/11 12:36:58;;;;;;;5.57;5.10;;;4.20;99.90;;;;;;4999061;28;20330;-87
2022/12/11 12:39:23;;;;;;;5.83;5.30;;;4.30;99.90;;;;;;5028468;28;20220;-84
2022/12/11 12:42:18;;;;;;;10.30;6.47;;;4.20;99.90;;;;;;5031177;28;20928;-83
2022/12/11 12:45:02;;;;;;;5.73;5.27;;;4.30;99.90;;;;;;5014577;28;20224;-86
2022/12/11 12:47:32;;;;;;;8.27;6.87;;;4.20;99.90;;;;;;4997872;28;20242;-86
2022/12/11 12:50:00;;;;;;;4.07;3.77;;;4.20;99.90;;;;;;5012632;28;20633;-84
2022/12/11 12:52:35;;;;;;;7.63;4.50;;;4.20;99.90;;;;;;4981250;28;20397;-85
2022/12/11 12:55:24;;;;;;;9.73;4.97;;;4.20;99.90;;;;;;4985938;28;21037;-84
2022/12/11 12:57:59;;;;;;;10.23;7.47;;;4.30;99.90;;;;;;4978054;28;20223;-85
2022/12/11 13:00:25;;;;;;;9.13;5.60;;;4.30;99.90;;;;;;4987594;28;20219;-89
2022/12/11 13:02:52;;;;;;;7.37;4.00;;;4.30;99.90;;;;;;4986776;28;20301;-84
2022/12/11 13:05:28;;;;;;;6.47;5.93;;;4.30;99.90;;;;;;5028550;28;20350;-84
2022/12/11 13:08:00;;;;;;;6.93;6.53;;;4.20;99.90;;;;;;4993656;28;20184;-83
2022/12/11 13:10:29;;;;;;;5.17;2.87;;;4.20;99.90;;;;;;4996091;28;20195;-88
2022/12/11 13:12:55;;;;;;;6.73;4.27;;;4.20;99.90;;;;;;4999263;28;20224;-86
2022/12/11 13:15:35;;;;;;;5.13;3.60;;;4.30;99.90;;;;;;5030754;28;20226;-84
2022/12/11 13:18:23;;;;;;;5.03;4.63;;;4.20;99.90;;;;;;4997686;28;20784;-84
2022/12/11 13:20:50;;;;;;;4.03;3.90;;;4.10;99.90;;;;;;4995892;28;20525;-85
2022/12/11 13:23:30;;;;;;;4.80;4.47;;;4.00;99.90;;;;;;4996300;28;20219;-86
2022/12/11 13:25:59;;;;;;;6.47;5.83;;;3.90;99.90;;;;;;5009343;28;20408;-88
2022/12/11 13:28:30;;;;;;;9.70;6.93;;;4.00;99.90;;;;;;4978078;28;20185;-85